Time;durP1;ratioP1;P1;durP2;ratioP2;P2;SDS_P1;SDS_P2;PMS_P1;PMS_P2;Temp;Humidity;BMP_temperature;BMP_pressure;BME280_temperature;BME280_humidity;BME280_pressure;Samples;Min_cycle;Max_cycle;Signal;HPM_P1;HPM_P2
2023/05/15 00:01:45;;;;;;;0.70;0.70;;;17.50;62.50;;;;;;4942535;28;20244;-76
2023/05/15 00:04:13;;;;;;;0.47;0.47;;;17.50;62.20;;;;;;4946178;28;20221;-76
2023/05/15 00:06:41;;;;;;;0.40;0.40;;;17.50;62.30;;;;;;4942904;28;20218;-75
2023/05/15 00:09:10;;;;;;;1.57;1.47;;;17.40;62.20;;;;;;4943866;28;20667;-75
2023/05/15 00:11:40;;;;;;;0.53;0.53;;;17.50;62.60;;;;;;4949006;28;20226;-76
2023/05/15 00:14:08;;;;;;;0.67;0.67;;;17.40;63.60;;;;;;4942083;28;20651;-75
2023/05/15 00:16:36;;;;;;;0.40;0.40;;;17.40;64.40;;;;;;4945429;28;20191;-76
2023/05/15 00:19:05;;;;;;;0.60;0.60;;;17.30;64.90;;;;;;4945236;28;20195;-75
2023/05/15 00:21:33;;;;;;;0.70;0.70;;;17.30;65.40;;;;;;4944887;28;20191;-75
2023/05/15 00:24:01;;;;;;;0.40;0.33;;;17.30;65.50;;;;;;4941751;28;20336;-75
2023/05/15 00:26:30;;;;;;;0.70;0.50;;;17.20;65.40;;;;;;4943821;28;20229;-75
2023/05/15 00:29:00;;;;;;;0.60;0.60;;;17.20;65.70;;;;;;4943966;28;20242;-76
2023/05/15 00:31:28;;;;;;;0.70;0.70;;;17.10;65.60;;;;;;4929812;28;20708;-75
2023/05/15 00:33:57;;;;;;;4.57;0.60;;;17.10;67.10;;;;;;4932893;29;20191;-75
2023/05/15 00:36:26;;;;;;;0.87;0.83;;;17.10;66.60;;;;;;4927819;29;20274;-75
2023/05/15 00:38:54;;;;;;;2.33;0.33;;;17.00;66.30;;;;;;4921385;29;20192;-75
2023/05/15 00:41:23;;;;;;;0.77;0.77;;;17.00;67.40;;;;;;4924339;29;20720;-76
2023/05/15 00:43:53;;;;;;;0.77;0.67;;;17.00;66.50;;;;;;4928743;29;20223;-76
2023/05/15 00:46:24;;;;;;;1.37;1.03;;;16.90;66.60;;;;;;4932464;29;20226;-76
2023/05/15 00:48:53;;;;;;;0.63;0.63;;;16.90;66.70;;;;;;4928441;29;20203;-76
2023/05/15 00:51:21;;;;;;;0.63;0.60;;;16.90;67.00;;;;;;4931848;29;20198;-75
2023/05/15 00:53:51;;;;;;;0.60;0.60;;;16.90;66.80;;;;;;4929835;29;20199;-75
2023/05/15 00:56:21;;;;;;;0.73;0.47;;;16.80;67.40;;;;;;4933655;29;20196;-76
2023/05/15 00:58:50;;;;;;;0.40;0.40;;;16.90;66.60;;;;;;4926208;29;20223;-76
2023/05/15 01:01:19;;;;;;;2.83;0.90;;;16.90;66.30;;;;;;4927366;29;20210;-76
2023/05/15 01:03:49;;;;;;;0.30;0.30;;;16.80;66.80;;;;;;4925675;29;20199;-77
2023/05/15 01:06:18;;;;;;;0.60;0.60;;;16.90;66.30;;;;;;4933080;29;20699;-76
2023/05/15 01:08:47;;;;;;;0.63;0.63;;;16.90;66.30;;;;;;4927864;29;20282;-76
2023/05/15 01:11:17;;;;;;;0.40;0.40;;;16.90;66.30;;;;;;4920576;29;20587;-76
2023/05/15 01:13:45;;;;;;;0.30;0.30;;;16.90;66.40;;;;;;4933431;29;20234;-76
2023/05/15 01:16:13;;;;;;;0.80;0.80;;;16.80;66.70;;;;;;4931468;29;20262;-76
2023/05/15 01:18:42;;;;;;;0.50;0.50;;;16.80;67.10;;;;;;4933132;29;20203;-75
2023/05/15 01:22:15;;;;;;;0.30;0.30;;;16.80;67.20;;;;;;4929287;29;20203;-75
2023/05/15 01:25:03;;;;;;;0.53;0.53;;;16.80;67.60;;;;;;4927546;29;20261;-76
2023/05/15 01:27:36;;;;;;;1.57;0.73;;;16.70;68.10;;;;;;4915791;29;20222;-76
2023/05/15 01:30:12;;;;;;;0.50;0.43;;;16.60;68.40;;;;;;4923331;29;20656;-75
2023/05/15 01:32:46;;;;;;;0.50;0.50;;;16.60;68.40;;;;;;4944060;28;20198;-75
2023/05/15 01:35:21;;;;;;;0.50;0.50;;;16.50;68.90;;;;;;4941685;28;20194;-76
2023/05/15 01:37:59;;;;;;;0.30;0.30;;;16.40;69.10;;;;;;4944042;28;20191;-75
2023/05/15 01:40:29;;;;;;;3.20;1.60;;;16.40;69.40;;;;;;4941046;28;20202;-76
2023/05/15 01:43:11;;;;;;;0.50;0.50;;;16.30;69.30;;;;;;4943562;28;20628;-75
2023/05/15 01:45:43;;;;;;;0.60;0.60;;;16.30;69.60;;;;;;4946076;28;20249;-76
2023/05/15 01:48:13;;;;;;;1.03;0.90;;;16.20;69.70;;;;;;4951560;28;20268;-76
2023/05/15 01:50:44;;;;;;;1.87;0.90;;;16.20;69.70;;;;;;4949541;28;20195;-75
2023/05/15 01:53:14;;;;;;;0.70;0.70;;;16.10;70.20;;;;;;4945074;28;20212;-76
2023/05/15 01:55:43;;;;;;;1.60;1.50;;;16.00;70.40;;;;;;4944492;28;20257;-75
2023/05/15 01:58:14;;;;;;;18.33;1.50;;;15.90;70.70;;;;;;4949034;28;20218;-76
2023/05/15 02:00:44;;;;;;;0.43;0.43;;;15.90;70.90;;;;;;4951268;28;20190;-76
2023/05/15 02:03:12;;;;;;;0.73;0.73;;;15.80;71.00;;;;;;4947313;28;20250;-76
2023/05/15 02:05:42;;;;;;;0.70;0.60;;;15.80;71.10;;;;;;4945868;28;20230;-76
2023/05/15 02:08:12;;;;;;;0.60;0.60;;;15.80;70.80;;;;;;4947781;28;20249;-76
2023/05/15 02:10:41;;;;;;;0.70;0.70;;;15.70;70.70;;;;;;4951307;28;20190;-75
2023/05/15 02:13:10;;;;;;;0.70;0.70;;;15.80;70.80;;;;;;4943623;28;20582;-76
2023/05/15 02:15:39;;;;;;;0.43;0.43;;;15.70;71.00;;;;;;4946089;28;20300;-76
2023/05/15 02:18:08;;;;;;;0.60;0.60;;;15.70;70.70;;;;;;4947817;28;20202;-76
2023/05/15 02:20:36;;;;;;;1.27;1.17;;;15.60;71.00;;;;;;4945793;28;20707;-75
2023/05/15 02:23:04;;;;;;;0.50;0.50;;;15.70;71.10;;;;;;4945345;28;21863;-76
2023/05/15 02:25:40;;;;;;;1.20;0.63;;;15.60;70.80;;;;;;4947310;28;20786;-76
2023/05/15 02:28:14;;;;;;;1.17;1.07;;;15.60;71.20;;;;;;4946277;28;20301;-76
2023/05/15 02:30:58;;;;;;;0.77;0.77;;;15.50;71.80;;;;;;4946287;28;20288;-76
2023/05/15 02:33:31;;;;;;;0.60;0.60;;;15.50;72.00;;;;;;4947364;28;20662;-76
2023/05/15 02:36:04;;;;;;;0.93;0.50;;;15.40;72.50;;;;;;4943069;28;20558;-76
2023/05/15 02:38:36;;;;;;;0.50;0.50;;;15.40;72.40;;;;;;4942783;28;20194;-76
2023/05/15 02:41:07;;;;;;;1.17;0.90;;;15.40;72.20;;;;;;4947210;28;20225;-76
2023/05/15 02:43:36;;;;;;;1.90;1.00;;;15.30;72.60;;;;;;4947144;28;20285;-76
2023/05/15 02:46:07;;;;;;;1.60;1.37;;;15.40;72.40;;;;;;4939479;28;20293;-76
2023/05/15 02:48:37;;;;;;;0.50;0.50;;;15.30;72.90;;;;;;4943359;28;20540;-76
2023/05/15 02:51:06;;;;;;;1.50;0.83;;;15.30;72.90;;;;;;4946498;28;20608;-75
2023/05/15 02:53:39;;;;;;;1.17;0.90;;;15.20;73.70;;;;;;4950560;28;20198;-75
2023/05/15 02:56:08;;;;;;;0.40;0.40;;;15.20;73.70;;;;;;4938014;28;20629;-75
2023/05/15 02:58:37;;;;;;;1.37;0.60;;;15.10;74.20;;;;;;4945518;28;20229;-76
2023/05/15 03:01:07;;;;;;;2.33;2.13;;;15.10;74.60;;;;;;4943157;28;20211;-76
2023/05/15 03:03:35;;;;;;;1.07;0.93;;;15.00;75.00;;;;;;4949653;28;20210;-75
2023/05/15 03:06:04;;;;;;;0.60;0.60;;;15.00;75.10;;;;;;4941220;28;20801;-75
2023/05/15 03:08:32;;;;;;;0.83;0.70;;;14.90;75.20;;;;;;4947043;28;20313;-74
2023/05/15 03:11:00;;;;;;;3.67;0.90;;;14.90;75.00;;;;;;4948080;28;20233;-76
2023/05/15 03:13:29;;;;;;;5.53;0.93;;;14.90;74.50;;;;;;4947702;28;20244;-75
2023/05/15 03:15:57;;;;;;;0.83;0.80;;;15.00;74.60;;;;;;4945514;28;20201;-75
2023/05/15 03:18:27;;;;;;;1.07;0.83;;;14.90;74.90;;;;;;4947688;28;20289;-75
2023/05/15 03:20:55;;;;;;;0.47;0.47;;;14.90;74.90;;;;;;4946663;28;20199;-76
2023/05/15 03:23:23;;;;;;;0.30;0.30;;;15.00;74.70;;;;;;4946050;28;20202;-76
2023/05/15 03:25:51;;;;;;;1.43;0.80;;;15.00;74.40;;;;;;4946283;28;20198;-75
2023/05/15 03:28:20;;;;;;;0.67;0.67;;;15.00;74.50;;;;;;4947861;28;20211;-76
2023/05/15 03:30:48;;;;;;;0.70;0.70;;;15.00;74.40;;;;;;4945880;28;20215;-75
2023/05/15 03:33:16;;;;;;;1.03;0.60;;;15.00;74.10;;;;;;4942016;28;20225;-76
2023/05/15 03:35:46;;;;;;;0.50;0.50;;;15.00;74.60;;;;;;4946479;28;21006;-76
2023/05/15 03:38:14;;;;;;;0.87;0.87;;;15.00;75.10;;;;;;4950531;28;20249;-75
2023/05/15 03:40:42;;;;;;;1.03;0.97;;;15.00;75.60;;;;;;4946798;28;20214;-76
2023/05/15 03:43:10;;;;;;;1.07;1.03;;;15.00;76.10;;;;;;4943213;28;20223;-76
2023/05/15 03:45:39;;;;;;;2.03;0.93;;;15.00;75.50;;;;;;4943922;28;20294;-76
2023/05/15 03:48:07;;;;;;;1.83;1.23;;;15.00;75.90;;;;;;4945196;28;20309;-76
2023/05/15 03:50:36;;;;;;;1.50;0.77;;;15.00;76.20;;;;;;4943285;28;20216;-76
2023/05/15 03:53:06;;;;;;;1.13;0.60;;;15.00;76.10;;;;;;4945567;28;20671;-75
2023/05/15 03:55:35;;;;;;;0.83;0.83;;;15.00;76.00;;;;;;4948627;28;20198;-75
2023/05/15 03:58:03;;;;;;;0.80;0.80;;;15.00;76.20;;;;;;4944358;28;20194;-75
2023/05/15 04:00:32;;;;;;;0.63;0.60;;;15.00;75.90;;;;;;4945402;28;20202;-75
2023/05/15 04:03:00;;;;;;;0.67;0.67;;;15.10;75.80;;;;;;4940464;28;20200;-75
2023/05/15 04:05:29;;;;;;;1.13;0.73;;;15.10;75.30;;;;;;4946257;28;20191;-76
2023/05/15 04:07:57;;;;;;;3.60;1.27;;;15.20;75.80;;;;;;4942051;28;20680;-75
2023/05/15 04:10:27;;;;;;;1.63;0.73;;;15.20;75.80;;;;;;4947187;28;20617;-76
2023/05/15 04:12:55;;;;;;;0.60;0.60;;;15.20;75.60;;;;;;4945308;28;20301;-76
2023/05/15 04:15:25;;;;;;;1.53;1.03;;;15.30;75.80;;;;;;4945398;28;20561;-77
2023/05/15 04:17:54;;;;;;;0.53;0.53;;;15.40;75.90;;;;;;4949640;28;20194;-76
2023/05/15 04:20:24;;;;;;;1.87;1.13;;;15.40;76.30;;;;;;4951050;28;20221;-75
2023/05/15 04:22:53;;;;;;;1.00;0.93;;;15.40;76.30;;;;;;4949541;28;20195;-75
2023/05/15 04:25:23;;;;;;;0.60;0.60;;;15.40;76.70;;;;;;4947186;28;20199;-75
2023/05/15 04:27:53;;;;;;;1.90;0.97;;;15.40;76.80;;;;;;4950585;28;20242;-75
2023/05/15 04:30:21;;;;;;;1.43;1.33;;;15.50;76.40;;;;;;4950671;28;20636;-76
2023/05/15 04:32:50;;;;;;;0.83;0.70;;;15.50;76.00;;;;;;4949874;28;21209;-76
2023/05/15 04:35:19;;;;;;;0.70;0.70;;;15.60;75.90;;;;;;4950917;28;20199;-76
2023/05/15 04:37:47;;;;;;;0.67;0.67;;;15.70;75.90;;;;;;4947018;28;20242;-75
2023/05/15 04:40:16;;;;;;;1.70;1.23;;;15.70;75.80;;;;;;4953555;28;20713;-75
2023/05/15 04:42:44;;;;;;;0.90;0.90;;;15.70;76.00;;;;;;4947281;28;20542;-77
2023/05/15 04:45:14;;;;;;;2.37;1.20;;;15.70;75.80;;;;;;4950346;28;20243;-75
2023/05/15 04:47:42;;;;;;;0.80;0.80;;;15.80;75.70;;;;;;4947475;28;20214;-76
2023/05/15 04:50:11;;;;;;;0.80;0.80;;;15.90;75.50;;;;;;4950718;28;20242;-75
2023/05/15 04:52:39;;;;;;;1.50;1.30;;;15.90;75.50;;;;;;4941789;28;20203;-76
2023/05/15 04:55:09;;;;;;;2.40;1.23;;;15.90;75.20;;;;;;4943809;28;20251;-75
2023/05/15 04:57:37;;;;;;;2.07;1.37;;;15.90;75.20;;;;;;4950101;28;20202;-76
2023/05/15 05:00:10;;;;;;;1.00;0.87;;;16.00;75.10;;;;;;4950094;29;20198;-75
2023/05/15 05:02:41;;;;;;;1.43;0.73;;;16.00;75.50;;;;;;4944864;28;20198;-74
2023/05/15 05:05:10;;;;;;;1.00;0.70;;;15.90;75.40;;;;;;4946282;28;20194;-75
2023/05/15 05:07:38;;;;;;;0.53;0.53;;;16.00;75.50;;;;;;4953354;28;20214;-76
2023/05/15 05:10:08;;;;;;;1.17;0.97;;;16.00;76.80;;;;;;4951642;28;20191;-76
2023/05/15 05:12:36;;;;;;;0.70;0.70;;;15.90;76.40;;;;;;4949522;28;20237;-75
2023/05/15 05:15:06;;;;;;;3.40;1.20;;;15.90;76.40;;;;;;4942031;28;20285;-75
2023/05/15 05:17:34;;;;;;;0.83;0.73;;;16.00;76.40;;;;;;4952781;28;20246;-75
2023/05/15 05:20:07;;;;;;;0.87;0.70;;;16.00;76.30;;;;;;4947605;28;20191;-75
2023/05/15 05:22:41;;;;;;;2.10;1.23;;;15.90;76.80;;;;;;4948720;28;20671;-75
2023/05/15 05:25:10;;;;;;;2.00;1.20;;;16.00;76.70;;;;;;4948721;28;20203;-75
2023/05/15 05:27:38;;;;;;;1.90;1.43;;;16.10;76.40;;;;;;4947886;28;20245;-75
2023/05/15 05:30:08;;;;;;;0.87;0.87;;;16.10;76.60;;;;;;4949193;28;20284;-74
2023/05/15 05:32:36;;;;;;;1.33;0.90;;;16.10;76.50;;;;;;4948464;28;20234;-75
2023/05/15 05:35:07;;;;;;;1.17;0.93;;;16.20;76.60;;;;;;4952348;28;20217;-76
2023/05/15 05:37:35;;;;;;;0.83;0.80;;;16.30;76.40;;;;;;4942306;28;20194;-76
2023/05/15 05:40:08;;;;;;;1.20;1.10;;;16.30;76.40;;;;;;4950566;28;20281;-75
2023/05/15 05:42:36;;;;;;;1.47;0.87;;;16.40;76.40;;;;;;4948284;28;20556;-77
2023/05/15 05:45:06;;;;;;;0.93;0.73;;;16.50;76.50;;;;;;4949669;28;20225;-75
2023/05/15 05:47:34;;;;;;;0.60;0.60;;;16.50;76.40;;;;;;4949351;28;20241;-75
2023/05/15 05:50:03;;;;;;;2.87;1.10;;;16.60;76.40;;;;;;4951559;28;20305;-75
2023/05/15 05:52:32;;;;;;;0.87;0.67;;;16.60;76.10;;;;;;4946467;28;20238;-75
2023/05/15 05:55:01;;;;;;;1.77;1.17;;;16.70;76.10;;;;;;4940391;28;20234;-75
2023/05/15 05:57:29;;;;;;;5.47;1.63;;;16.80;76.00;;;;;;4943339;28;20293;-75
2023/05/15 05:59:58;;;;;;;1.73;0.83;;;16.80;75.80;;;;;;4949142;28;20190;-75
2023/05/15 06:02:27;;;;;;;1.00;0.90;;;16.90;75.70;;;;;;4948393;28;20309;-75
2023/05/15 06:04:55;;;;;;;0.40;0.40;;;16.90;75.60;;;;;;4949962;28;20281;-75
2023/05/15 06:07:23;;;;;;;1.20;0.93;;;17.00;75.30;;;;;;4948749;28;20277;-75
2023/05/15 06:09:53;;;;;;;0.50;0.50;;;17.10;75.20;;;;;;4946211;28;20258;-75
2023/05/15 06:12:21;;;;;;;1.20;0.80;;;17.20;75.40;;;;;;4954535;29;20635;-75
2023/05/15 06:14:50;;;;;;;1.30;0.73;;;17.20;75.20;;;;;;4945291;28;20202;-75
2023/05/15 06:17:18;;;;;;;0.60;0.60;;;17.30;75.10;;;;;;4949441;28;20249;-75
2023/05/15 06:19:46;;;;;;;1.27;0.50;;;17.40;75.10;;;;;;4947108;28;20273;-75
2023/05/15 06:22:15;;;;;;;0.40;0.40;;;17.50;75.00;;;;;;4953936;28;20194;-75
2023/05/15 06:24:43;;;;;;;1.17;0.63;;;17.60;75.00;;;;;;4944440;28;20207;-75
2023/05/15 06:27:13;;;;;;;5.03;1.90;;;17.70;75.10;;;;;;4949961;28;20230;-76
2023/05/15 06:29:41;;;;;;;0.60;0.57;;;17.80;75.00;;;;;;4952944;29;20222;-75
2023/05/15 06:32:09;;;;;;;0.70;0.50;;;17.90;74.80;;;;;;4950528;28;20320;-73
2023/05/15 06:34:37;;;;;;;0.57;0.50;;;18.00;74.60;;;;;;4950461;28;20588;-76
2023/05/15 06:37:06;;;;;;;4.33;1.13;;;18.00;74.40;;;;;;4952043;29;20222;-75
2023/05/15 06:39:35;;;;;;;1.03;0.70;;;18.10;74.30;;;;;;4949403;28;20240;-76
2023/05/15 06:42:04;;;;;;;0.87;0.77;;;18.20;74.60;;;;;;4950341;28;20535;-75
2023/05/15 06:44:34;;;;;;;0.70;0.57;;;18.30;74.70;;;;;;4949949;28;20195;-76
2023/05/15 06:47:03;;;;;;;0.70;0.70;;;18.40;74.60;;;;;;4948988;28;20679;-75
2023/05/15 06:49:31;;;;;;;1.07;0.83;;;18.50;74.20;;;;;;4950718;29;20230;-76
2023/05/15 06:51:59;;;;;;;0.50;0.50;;;18.60;74.20;;;;;;4950078;29;20344;-76
2023/05/15 06:54:28;;;;;;;0.83;0.83;;;18.70;74.20;;;;;;4945532;28;20634;-75
2023/05/15 06:56:56;;;;;;;1.23;1.00;;;18.70;74.10;;;;;;4951888;29;20225;-75
2023/05/15 06:59:24;;;;;;;1.00;0.63;;;18.80;74.70;;;;;;4950917;29;20265;-77
2023/05/15 07:01:54;;;;;;;1.57;1.17;;;18.90;73.50;;;;;;4945325;29;20198;-77
2023/05/15 07:04:23;;;;;;;1.23;0.60;;;19.00;73.60;;;;;;4943237;29;20286;-76
2023/05/15 07:06:51;;;;;;;0.40;0.40;;;19.10;73.50;;;;;;4953492;28;20211;-78
2023/05/15 07:09:19;;;;;;;1.57;0.57;;;19.20;73.30;;;;;;4952860;29;20250;-76
2023/05/15 07:11:47;;;;;;;0.53;0.53;;;19.20;73.20;;;;;;4947376;29;20190;-75
2023/05/15 07:14:16;;;;;;;0.93;0.70;;;19.30;73.00;;;;;;4949696;29;20225;-76
2023/05/15 07:16:45;;;;;;;0.30;0.30;;;19.30;72.70;;;;;;4945101;29;20238;-76
2023/05/15 07:19:19;;;;;;;0.33;0.33;;;19.50;72.90;;;;;;4952076;28;20205;-78
2023/05/15 07:21:48;;;;;;;0.93;0.60;;;19.50;72.60;;;;;;4949048;29;20292;-75
2023/05/15 07:24:16;;;;;;;1.23;0.70;;;19.60;73.50;;;;;;4944624;28;20195;-75
2023/05/15 07:26:44;;;;;;;1.20;0.60;;;19.60;72.60;;;;;;4949724;28;20662;-76
2023/05/15 07:29:25;;;;;;;3.87;0.83;;;19.70;72.70;;;;;;4944050;28;20666;-76
2023/05/15 07:31:54;;;;;;;0.40;0.40;;;19.70;72.70;;;;;;4944784;28;20230;-75
2023/05/15 07:34:24;;;;;;;1.00;0.90;;;19.90;72.40;;;;;;4942562;28;20203;-76
2023/05/15 07:36:52;;;;;;;0.50;0.50;;;19.90;72.70;;;;;;4946429;28;20670;-78
2023/05/15 07:39:20;;;;;;;1.23;1.00;;;19.90;72.60;;;;;;4951026;28;20199;-76
2023/05/15 07:41:49;;;;;;;1.57;1.07;;;20.00;72.40;;;;;;4950620;28;20222;-77
2023/05/15 07:44:17;;;;;;;2.10;1.17;;;20.00;72.70;;;;;;4948801;28;20218;-77
2023/05/15 07:47:02;;;;;;;0.40;0.40;;;20.10;72.80;;;;;;4942161;28;20205;-75
2023/05/15 07:49:32;;;;;;;1.27;0.70;;;20.20;72.50;;;;;;4951333;28;20217;-74
2023/05/15 07:52:01;;;;;;;0.57;0.57;;;20.20;71.90;;;;;;4949407;28;20668;-74
2023/05/15 07:54:30;;;;;;;0.85;0.85;;;20.30;72.90;;;;;;4952587;28;20218;-71
2023/05/15 07:56:59;;;;;;;0.50;0.50;;;20.30;72.30;;;;;;4948479;29;20751;-75
2023/05/15 07:59:27;;;;;;;0.40;0.40;;;20.40;72.40;;;;;;4954375;28;20194;-74
2023/05/15 08:01:55;;;;;;;0.40;0.40;;;20.50;72.10;;;;;;4953010;29;20585;-73
2023/05/15 08:04:24;;;;;;;0.68;0.60;;;20.60;72.10;;;;;;4953569;28;20277;-75
2023/05/15 08:06:53;;;;;;;0.60;0.60;;;20.70;72.10;;;;;;4951968;28;20281;-74
2023/05/15 08:09:22;;;;;;;0.73;0.73;;;20.80;71.60;;;;;;4955148;28;20221;-73
2023/05/15 08:11:50;;;;;;;0.47;0.47;;;20.80;71.30;;;;;;4954374;28;20217;-74
2023/05/15 08:14:18;;;;;;;0.40;0.40;;;20.80;70.70;;;;;;4953447;28;20277;-74
2023/05/15 08:16:47;;;;;;;0.80;0.50;;;20.90;70.70;;;;;;4948073;28;20213;-74
2023/05/15 08:19:15;;;;;;;0.88;0.73;;;21.00;71.10;;;;;;4952757;28;20252;-76
2023/05/15 08:21:43;;;;;;;0.43;0.40;;;21.10;70.80;;;;;;4955546;29;20303;-75
2023/05/15 08:24:13;;;;;;;1.00;0.90;;;21.10;70.70;;;;;;4953914;29;20246;-74
2023/05/15 08:26:41;;;;;;;0.77;0.77;;;21.20;70.50;;;;;;4953297;28;20234;-73
2023/05/15 08:29:10;;;;;;;0.80;0.50;;;21.30;69.70;;;;;;4946196;28;20656;-74
2023/05/15 08:31:38;;;;;;;0.80;0.50;;;21.30;69.80;;;;;;4954114;28;20604;-74
2023/05/15 08:34:07;;;;;;;1.23;0.65;;;21.40;69.90;;;;;;4951581;28;20227;-74
2023/05/15 08:36:35;;;;;;;0.77;0.52;;;21.50;70.70;;;;;;4947051;28;20253;-73
2023/05/15 08:39:06;;;;;;;0.75;0.75;;;21.60;69.70;;;;;;4949250;28;20195;-74
2023/05/15 08:41:42;;;;;;;1.27;0.98;;;21.70;69.70;;;;;;4952436;29;20225;-74
2023/05/15 08:44:12;;;;;;;6.65;2.25;;;21.80;69.70;;;;;;4950167;28;20221;-75
2023/05/15 08:46:41;;;;;;;0.45;0.45;;;21.80;69.30;;;;;;4950752;28;20191;-74
2023/05/15 08:49:14;;;;;;;0.70;0.50;;;21.90;68.60;;;;;;4951923;28;20194;-74
2023/05/15 08:51:43;;;;;;;1.08;0.73;;;22.00;68.70;;;;;;4951280;28;20269;-74
2023/05/15 08:54:11;;;;;;;1.27;0.70;;;22.00;67.70;;;;;;4951984;29;20650;-73
2023/05/15 08:56:42;;;;;;;0.47;0.43;;;22.00;67.60;;;;;;4945183;28;20643;-73
2023/05/15 08:59:10;;;;;;;0.28;0.28;;;22.10;68.00;;;;;;4954344;28;20206;-75
2023/05/15 09:01:39;;;;;;;0.77;0.77;;;22.20;68.10;;;;;;4955446;29;20250;-74
2023/05/15 09:04:07;;;;;;;1.02;0.90;;;22.20;68.00;;;;;;4951421;28;20195;-74
2023/05/15 09:06:37;;;;;;;1.08;1.00;;;22.30;67.50;;;;;;4952158;28;20199;-73
2023/05/15 09:09:05;;;;;;;0.35;0.35;;;22.30;67.40;;;;;;4954446;29;20199;-76
2023/05/15 09:11:35;;;;;;;0.77;0.68;;;22.40;67.60;;;;;;4952989;28;20691;-73
2023/05/15 09:14:06;;;;;;;0.30;0.30;;;22.50;67.70;;;;;;4954918;28;20689;-74
2023/05/15 09:16:34;;;;;;;0.45;0.45;;;22.60;67.60;;;;;;4952267;28;20198;-75
2023/05/15 09:19:03;;;;;;;1.70;0.90;;;22.60;67.20;;;;;;4940886;28;20578;-76
2023/05/15 09:21:32;;;;;;;0.55;0.40;;;22.70;67.50;;;;;;4947505;28;20596;-74
2023/05/15 09:24:18;;;;;;;0.68;0.68;;;22.70;67.00;;;;;;4946114;28;20194;-75
2023/05/15 09:26:48;;;;;;;1.08;0.60;;;22.80;67.10;;;;;;4946213;28;20198;-74
2023/05/15 09:29:18;;;;;;;1.05;0.70;;;22.80;66.90;;;;;;4948630;28;20222;-74
2023/05/15 09:31:47;;;;;;;2.13;0.85;;;22.90;66.90;;;;;;4942887;28;20702;-74
2023/05/15 09:34:15;;;;;;;0.45;0.40;;;22.90;66.80;;;;;;4949388;28;20249;-75
2023/05/15 09:36:44;;;;;;;0.80;0.65;;;22.90;66.20;;;;;;4951099;28;20652;-75
2023/05/15 09:39:12;;;;;;;0.85;0.60;;;23.00;66.10;;;;;;4945003;28;20270;-74
2023/05/15 09:41:43;;;;;;;0.40;0.40;;;23.10;66.20;;;;;;4951790;28;20201;-75
2023/05/15 09:44:27;;;;;;;0.50;0.50;;;23.10;66.30;;;;;;4947407;28;20199;-74
2023/05/15 09:46:55;;;;;;;1.63;0.82;;;23.20;66.00;;;;;;4947258;28;20222;-74
2023/05/15 09:49:24;;;;;;;0.60;0.50;;;23.20;66.00;;;;;;4940909;29;20609;-74
2023/05/15 09:51:53;;;;;;;1.17;0.88;;;23.30;66.00;;;;;;4952549;29;20289;-75
2023/05/15 09:54:24;;;;;;;1.52;1.10;;;23.40;66.10;;;;;;4948618;28;20281;-74
2023/05/15 09:56:52;;;;;;;0.60;0.60;;;23.40;65.80;;;;;;4946829;28;20643;-73
2023/05/15 09:59:22;;;;;;;0.50;0.50;;;23.40;65.70;;;;;;4950456;28;20195;-75
2023/05/15 10:01:51;;;;;;;0.50;0.50;;;23.40;64.60;;;;;;4952629;28;20648;-76
2023/05/15 10:04:20;;;;;;;3.00;0.60;;;23.50;65.10;;;;;;4949403;28;20198;-75
2023/05/15 10:06:56;;;;;;;1.20;1.10;;;23.50;64.90;;;;;;4951930;28;20658;-74
2023/05/15 10:09:30;;;;;;;0.90;0.90;;;23.50;64.40;;;;;;4949514;28;20718;-73
2023/05/15 10:11:59;;;;;;;0.60;0.52;;;23.50;64.30;;;;;;4943330;28;20215;-74
2023/05/15 10:14:30;;;;;;;4.40;0.68;;;23.60;64.70;;;;;;4947697;28;20261;-74
2023/05/15 10:16:58;;;;;;;1.20;0.68;;;23.70;64.90;;;;;;4948495;28;20238;-75
2023/05/15 10:19:28;;;;;;;0.70;0.63;;;23.80;64.70;;;;;;4946496;28;20289;-75
2023/05/15 10:21:58;;;;;;;0.85;0.70;;;23.80;64.70;;;;;;4946456;28;21600;-75
2023/05/15 10:24:31;;;;;;;0.63;0.60;;;23.80;64.60;;;;;;4945097;28;20201;-75
2023/05/15 10:26:59;;;;;;;0.73;0.55;;;23.80;63.80;;;;;;4947320;28;20202;-74
2023/05/15 10:29:30;;;;;;;0.95;0.52;;;23.90;64.10;;;;;;4947931;28;20197;-74
2023/05/15 10:32:00;;;;;;;0.65;0.55;;;24.00;64.10;;;;;;4947872;28;20260;-75
2023/05/15 10:34:29;;;;;;;0.40;0.40;;;24.00;64.00;;;;;;4948347;28;20245;-74
2023/05/15 10:36:58;;;;;;;0.90;0.60;;;24.10;64.00;;;;;;4950001;28;20250;-74
2023/05/15 10:39:29;;;;;;;4.32;1.50;;;24.20;64.00;;;;;;4946922;28;20199;-75
2023/05/15 10:41:59;;;;;;;0.47;0.40;;;24.30;64.00;;;;;;4948730;28;20736;-74
2023/05/15 10:44:28;;;;;;;3.90;1.80;;;24.30;63.30;;;;;;4948219;28;20199;-77
2023/05/15 10:46:59;;;;;;;0.82;0.65;;;24.30;63.60;;;;;;4951388;28;20227;-76
2023/05/15 10:49:27;;;;;;;0.52;0.40;;;24.30;63.90;;;;;;4942013;28;20467;-76
2023/05/15 10:51:56;;;;;;;0.47;0.47;;;24.40;63.80;;;;;;4945635;28;20238;-76
2023/05/15 10:59:07;;;;;;;0.47;0.45;;;24.50;63.60;;;;;;4868908;29;20220;-77
2023/05/15 11:01:38;;;;;;;2.28;0.98;;;24.60;63.40;;;;;;4869080;29;20200;-77
2023/05/15 11:04:09;;;;;;;1.25;0.50;;;24.70;63.40;;;;;;4912918;28;20202;-76
2023/05/15 11:06:39;;;;;;;0.95;0.57;;;24.80;63.50;;;;;;4948743;28;20209;-76
2023/05/15 11:09:39;;;;;;;0.73;0.50;;;24.80;63.30;;;;;;4945845;28;20240;-77
2023/05/15 11:12:17;;;;;;;0.70;0.60;;;24.90;63.50;;;;;;4948523;28;20214;-77
2023/05/15 11:15:21;;;;;;;0.85;0.68;;;24.90;62.70;;;;;;4947115;28;20190;-76
2023/05/15 11:18:07;;;;;;;1.33;0.63;;;25.00;62.00;;;;;;4951087;28;20198;-76
2023/05/15 11:20:41;;;;;;;1.60;0.73;;;25.00;61.90;;;;;;4946067;28;20194;-77
2023/05/15 11:23:10;;;;;;;0.60;0.50;;;25.10;61.30;;;;;;4947680;28;20205;-76
2023/05/15 11:25:38;;;;;;;0.55;0.47;;;25.20;61.50;;;;;;4949303;28;20286;-76
2023/05/15 11:28:06;;;;;;;0.95;0.52;;;25.20;61.50;;;;;;4944593;28;20198;-77
2023/05/15 11:30:37;;;;;;;1.38;0.82;;;25.20;61.40;;;;;;4944845;28;20241;-77
2023/05/15 11:33:10;;;;;;;0.50;0.40;;;25.30;61.60;;;;;;4948975;28;20206;-76
2023/05/15 11:35:41;;;;;;;0.68;0.68;;;25.40;61.50;;;;;;4948572;28;20186;-77
2023/05/15 11:38:14;;;;;;;0.30;0.30;;;25.40;61.10;;;;;;4950612;28;20197;-77
2023/05/15 11:40:47;;;;;;;1.08;0.80;;;25.50;60.70;;;;;;4946073;28;20193;-75
2023/05/15 11:43:21;;;;;;;1.80;0.75;;;25.50;60.90;;;;;;4947069;28;20222;-77
2023/05/15 11:45:51;;;;;;;0.70;0.70;;;25.60;61.20;;;;;;4951916;28;20647;-77
2023/05/15 11:48:22;;;;;;;0.50;0.30;;;25.60;61.00;;;;;;4943352;28;20221;-77
2023/05/15 11:50:52;;;;;;;1.55;0.80;;;25.70;62.00;;;;;;4942721;28;20328;-76
2023/05/15 11:53:21;;;;;;;0.63;0.40;;;25.80;60.90;;;;;;4945754;28;20265;-77
2023/05/15 11:55:53;;;;;;;0.73;0.73;;;25.90;60.00;;;;;;4947820;28;20244;-76
2023/05/15 11:58:23;;;;;;;0.38;0.35;;;25.90;59.40;;;;;;4946685;28;20198;-76
2023/05/15 12:00:52;;;;;;;0.57;0.57;;;26.00;59.10;;;;;;4942494;28;20287;-77
2023/05/15 12:03:24;;;;;;;0.30;0.30;;;26.00;59.20;;;;;;4945485;28;20285;-77
2023/05/15 12:05:54;;;;;;;0.40;0.40;;;26.10;59.20;;;;;;4945670;28;20187;-77
2023/05/15 12:08:31;;;;;;;0.43;0.43;;;26.20;58.90;;;;;;4947239;28;20238;-77
2023/05/15 12:11:00;;;;;;;0.80;0.65;;;26.20;59.00;;;;;;4939075;28;20206;-77
2023/05/15 12:13:29;;;;;;;11.80;0.45;;;26.30;59.00;;;;;;4948876;28;20222;-77
2023/05/15 12:15:58;;;;;;;2.47;0.80;;;26.30;59.10;;;;;;4944992;28;20269;-78
2023/05/15 12:18:31;;;;;;;0.98;0.60;;;26.40;59.40;;;;;;4949664;28;20203;-77
2023/05/15 12:21:04;;;;;;;0.77;0.77;;;26.40;59.60;;;;;;4940311;28;20723;-75
2023/05/15 12:23:32;;;;;;;1.17;0.55;;;26.50;59.40;;;;;;4944465;28;20199;-74
2023/05/15 12:26:02;;;;;;;0.75;0.73;;;26.50;58.60;;;;;;4947946;28;20195;-75
2023/05/15 12:28:33;;;;;;;0.35;0.35;;;26.60;58.60;;;;;;4943214;28;20277;-75
2023/05/15 12:31:01;;;;;;;0.38;0.38;;;26.70;58.40;;;;;;4946334;28;21187;-75
2023/05/15 12:33:32;;;;;;;0.50;0.40;;;26.80;58.40;;;;;;4940982;28;20301;-76
2023/05/15 12:36:01;;;;;;;0.80;0.75;;;26.70;58.50;;;;;;4944686;28;20305;-75
2023/05/15 12:38:29;;;;;;;1.42;0.73;;;26.80;58.20;;;;;;4941818;28;20199;-75
2023/05/15 12:41:26;;;;;;;1.20;0.98;;;26.80;58.20;;;;;;4951329;28;20640;-78
2023/05/15 12:43:54;;;;;;;1.55;0.98;;;26.80;58.10;;;;;;4946888;28;20199;-75
2023/05/15 12:46:23;;;;;;;1.00;0.40;;;26.70;57.90;;;;;;4946356;28;20203;-75
2023/05/15 12:48:54;;;;;;;1.45;1.00;;;26.70;58.30;;;;;;4949075;28;20623;-76
2023/05/15 12:51:22;;;;;;;0.93;0.65;;;26.60;58.00;;;;;;4950048;28;20198;-75
2023/05/15 12:53:52;;;;;;;0.57;0.50;;;26.70;58.00;;;;;;4948249;28;20323;-76
2023/05/15 12:56:21;;;;;;;0.47;0.40;;;26.70;58.10;;;;;;4943000;28;20233;-75
2023/05/15 12:58:53;;;;;;;0.57;0.57;;;26.80;58.20;;;;;;4951478;28;20258;-76
2023/05/15 13:01:22;;;;;;;0.65;0.50;;;26.80;58.20;;;;;;4948521;28;20206;-77
2023/05/15 13:03:51;;;;;;;1.23;0.70;;;26.90;58.20;;;;;;4946515;28;20739;-75
2023/05/15 13:06:23;;;;;;;0.52;0.50;;;26.90;58.40;;;;;;4948856;28;20199;-75
2023/05/15 13:09:06;;;;;;;0.35;0.35;;;27.00;58.50;;;;;;4949085;28;20187;-75